sensor_id;sensor_type;location;lat;lon;timestamp;P1;durP1;ratioP1;P2;durP2;ratioP2
69894;SDS011;57172;52.034;5.090;2023-08-06T00:01:48;11.67;;;5.50;;
69894;SDS011;57172;52.034;5.090;2023-08-06T00:04:16;8.70;;;5.07;;
69894;SDS011;57172;52.034;5.090;2023-08-06T00:06:43;9.02;;;5.50;;
69894;SDS011;57172;52.034;5.090;2023-08-06T00:09:10;8.95;;;5.20;;
69894;SDS011;57172;52.034;5.090;2023-08-06T00:11:37;11.15;;;5.28;;
69894;SDS011;57172;52.034;5.090;2023-08-06T00:14:04;8.67;;;5.27;;
69894;SDS011;57172;52.034;5.090;2023-08-06T00:16:30;8.98;;;5.50;;
69894;SDS011;57172;52.034;5.090;2023-08-06T00:18:57;11.57;;;5.45;;
69894;SDS011;57172;52.034;5.090;2023-08-06T00:21:24;10.40;;;5.50;;
69894;SDS011;57172;52.034;5.090;2023-08-06T00:23:51;10.38;;;5.20;;
69894;SDS011;57172;52.034;5.090;2023-08-06T00:26:18;12.07;;;5.30;;
69894;SDS011;57172;52.034;5.090;2023-08-06T00:28:46;9.60;;;4.97;;
69894;SDS011;57172;52.034;5.090;2023-08-06T00:31:13;10.60;;;5.20;;
69894;SDS011;57172;52.034;5.090;2023-08-06T00:33:40;7.93;;;5.10;;
69894;SDS011;57172;52.034;5.090;2023-08-06T00:36:07;9.20;;;5.18;;
69894;SDS011;57172;52.034;5.090;2023-08-06T00:38:34;8.80;;;4.90;;
69894;SDS011;57172;52.034;5.090;2023-08-06T00:41:01;9.05;;;5.60;;
69894;SDS011;57172;52.034;5.090;2023-08-06T00:43:28;8.32;;;5.18;;
69894;SDS011;57172;52.034;5.090;2023-08-06T00:45:55;8.32;;;4.65;;
69894;SDS011;57172;52.034;5.090;2023-08-06T00:48:22;8.13;;;4.90;;
69894;SDS011;57172;52.034;5.090;2023-08-06T00:50:49;8.37;;;5.07;;
69894;SDS011;57172;52.034;5.090;2023-08-06T00:53:16;8.75;;;4.95;;
69894;SDS011;57172;52.034;5.090;2023-08-06T00:55:44;8.50;;;5.03;;
69894;SDS011;57172;52.034;5.090;2023-08-06T00:58:12;8.52;;;5.13;;
69894;SDS011;57172;52.034;5.090;2023-08-06T01:00:40;10.90;;;5.20;;
69894;SDS011;57172;52.034;5.090;2023-08-06T01:03:07;10.90;;;5.00;;
69894;SDS011;57172;52.034;5.090;2023-08-06T01:05:34;10.90;;;5.15;;
69894;SDS011;57172;52.034;5.090;2023-08-06T01:14:23;8.50;;;4.93;;
69894;SDS011;57172;52.034;5.090;2023-08-06T01:16:39;9.47;;;5.13;;
69894;SDS011;57172;52.034;5.090;2023-08-06T01:19:17;8.60;;;5.05;;
69894;SDS011;57172;52.034;5.090;2023-08-06T01:21:44;8.48;;;4.90;;
69894;SDS011;57172;52.034;5.090;2023-08-06T01:24:11;10.10;;;5.18;;
69894;SDS011;57172;52.034;5.090;2023-08-06T01:26:42;9.40;;;5.00;;
69894;SDS011;57172;52.034;5.090;2023-08-06T01:32:01;9.05;;;4.85;;
69894;SDS011;57172;52.034;5.090;2023-08-06T01:34:31;9.98;;;4.97;;
69894;SDS011;57172;52.034;5.090;2023-08-06T01:37:00;9.52;;;4.72;;
69894;SDS011;57172;52.034;5.090;2023-08-06T01:39:27;9.05;;;4.85;;
69894;SDS011;57172;52.034;5.090;2023-08-06T01:41:54;9.27;;;5.17;;
69894;SDS011;57172;52.034;5.090;2023-08-06T01:44:21;7.63;;;4.75;;
69894;SDS011;57172;52.034;5.090;2023-08-06T01:46:48;10.05;;;5.28;;
69894;SDS011;57172;52.034;5.090;2023-08-06T01:49:15;11.70;;;5.00;;
69894;SDS011;57172;52.034;5.090;2023-08-06T01:51:42;8.35;;;4.93;;
69894;SDS011;57172;52.034;5.090;2023-08-06T01:54:09;8.67;;;4.97;;
69894;SDS011;57172;52.034;5.090;2023-08-06T01:56:37;7.95;;;4.80;;
69894;SDS011;57172;52.034;5.090;2023-08-06T01:59:04;8.73;;;5.20;;
69894;SDS011;57172;52.034;5.090;2023-08-06T02:01:31;9.38;;;5.30;;
69894;SDS011;57172;52.034;5.090;2023-08-06T02:03:58;9.60;;;5.10;;
69894;SDS011;57172;52.034;5.090;2023-08-06T02:06:25;13.53;;;5.20;;
69894;SDS011;57172;52.034;5.090;2023-08-06T02:08:52;10.70;;;5.15;;
69894;SDS011;57172;52.034;5.090;2023-08-06T02:11:19;8.98;;;5.18;;
69894;SDS011;57172;52.034;5.090;2023-08-06T02:13:46;8.93;;;4.80;;
69894;SDS011;57172;52.034;5.090;2023-08-06T02:16:17;9.38;;;5.00;;
69894;SDS011;57172;52.034;5.090;2023-08-06T02:18:44;10.63;;;5.20;;
69894;SDS011;57172;52.034;5.090;2023-08-06T02:21:11;8.07;;;4.88;;
69894;SDS011;57172;52.034;5.090;2023-08-06T02:23:38;9.18;;;5.18;;
69894;SDS011;57172;52.034;5.090;2023-08-06T02:26:05;11.43;;;5.00;;
69894;SDS011;57172;52.034;5.090;2023-08-06T02:28:32;9.25;;;4.93;;
69894;SDS011;57172;52.034;5.090;2023-08-06T02:30:59;11.03;;;5.00;;
69894;SDS011;57172;52.034;5.090;2023-08-06T02:33:27;9.85;;;5.45;;
69894;SDS011;57172;52.034;5.090;2023-08-06T02:36:01;9.23;;;5.20;;
69894;SDS011;57172;52.034;5.090;2023-08-06T02:38:32;9.20;;;5.10;;
69894;SDS011;57172;52.034;5.090;2023-08-06T02:41:02;11.43;;;5.40;;
69894;SDS011;57172;52.034;5.090;2023-08-06T02:43:30;10.50;;;5.70;;
69894;SDS011;57172;52.034;5.090;2023-08-06T02:45:58;11.48;;;5.60;;
69894;SDS011;57172;52.034;5.090;2023-08-06T02:48:26;9.75;;;5.57;;
69894;SDS011;57172;52.034;5.090;2023-08-06T02:50:56;9.45;;;5.75;;
69894;SDS011;57172;52.034;5.090;2023-08-06T02:53:24;10.95;;;5.45;;
69894;SDS011;57172;52.034;5.090;2023-08-06T02:55:51;10.17;;;6.03;;
69894;SDS011;57172;52.034;5.090;2023-08-06T02:58:25;9.75;;;5.40;;
69894;SDS011;57172;52.034;5.090;2023-08-06T03:01:09;11.85;;;5.65;;
69894;SDS011;57172;52.034;5.090;2023-08-06T03:03:49;9.88;;;5.70;;
69894;SDS011;57172;52.034;5.090;2023-08-06T03:06:22;10.32;;;5.68;;
69894;SDS011;57172;52.034;5.090;2023-08-06T03:08:52;11.10;;;5.40;;
69894;SDS011;57172;52.034;5.090;2023-08-06T03:11:19;9.27;;;5.13;;
69894;SDS011;57172;52.034;5.090;2023-08-06T03:13:48;8.93;;;5.50;;
69894;SDS011;57172;52.034;5.090;2023-08-06T03:16:16;9.20;;;5.53;;
69894;SDS011;57172;52.034;5.090;2023-08-06T03:18:43;10.77;;;5.65;;
69894;SDS011;57172;52.034;5.090;2023-08-06T03:21:10;10.70;;;5.30;;
69894;SDS011;57172;52.034;5.090;2023-08-06T03:23:37;9.18;;;5.70;;
69894;SDS011;57172;52.034;5.090;2023-08-06T03:26:05;9.77;;;5.80;;
69894;SDS011;57172;52.034;5.090;2023-08-06T03:28:32;9.13;;;5.57;;
69894;SDS011;57172;52.034;5.090;2023-08-06T03:31:00;11.32;;;5.80;;
69894;SDS011;57172;52.034;5.090;2023-08-06T03:33:37;9.43;;;5.67;;
69894;SDS011;57172;52.034;5.090;2023-08-06T03:36:09;10.75;;;5.93;;
69894;SDS011;57172;52.034;5.090;2023-08-06T03:38:36;10.15;;;5.88;;
69894;SDS011;57172;52.034;5.090;2023-08-06T03:41:05;10.32;;;5.78;;
69894;SDS011;57172;52.034;5.090;2023-08-06T03:43:32;11.05;;;6.10;;
69894;SDS011;57172;52.034;5.090;2023-08-06T03:46:02;9.70;;;5.70;;
69894;SDS011;57172;52.034;5.090;2023-08-06T03:48:29;11.95;;;6.60;;
69894;SDS011;57172;52.034;5.090;2023-08-06T03:50:57;10.05;;;6.03;;
69894;SDS011;57172;52.034;5.090;2023-08-06T03:53:25;11.25;;;6.15;;
69894;SDS011;57172;52.034;5.090;2023-08-06T03:55:52;10.45;;;6.35;;
69894;SDS011;57172;52.034;5.090;2023-08-06T03:58:19;11.07;;;6.33;;
69894;SDS011;57172;52.034;5.090;2023-08-06T04:00:46;12.00;;;6.35;;
69894;SDS011;57172;52.034;5.090;2023-08-06T04:03:13;11.88;;;6.78;;
69894;SDS011;57172;52.034;5.090;2023-08-06T04:05:41;12.18;;;6.45;;
69894;SDS011;57172;52.034;5.090;2023-08-06T04:08:08;12.60;;;6.60;;
69894;SDS011;57172;52.034;5.090;2023-08-06T04:10:35;14.67;;;6.67;;
69894;SDS011;57172;52.034;5.090;2023-08-06T04:13:02;14.50;;;6.75;;
69894;SDS011;57172;52.034;5.090;2023-08-06T04:15:29;16.95;;;6.70;;
69894;SDS011;57172;52.034;5.090;2023-08-06T04:17:56;14.13;;;6.72;;
69894;SDS011;57172;52.034;5.090;2023-08-06T04:20:23;10.85;;;6.50;;
69894;SDS011;57172;52.034;5.090;2023-08-06T04:22:51;12.10;;;6.90;;
69894;SDS011;57172;52.034;5.090;2023-08-06T04:25:20;13.25;;;6.72;;
69894;SDS011;57172;52.034;5.090;2023-08-06T04:27:47;12.85;;;7.18;;
69894;SDS011;57172;52.034;5.090;2023-08-06T04:30:14;11.82;;;7.22;;
69894;SDS011;57172;52.034;5.090;2023-08-06T04:32:41;15.63;;;6.75;;
69894;SDS011;57172;52.034;5.090;2023-08-06T04:35:09;11.83;;;6.40;;
69894;SDS011;57172;52.034;5.090;2023-08-06T04:37:36;12.48;;;7.13;;
69894;SDS011;57172;52.034;5.090;2023-08-06T04:40:03;11.95;;;7.03;;
69894;SDS011;57172;52.034;5.090;2023-08-06T04:42:30;14.40;;;6.88;;
69894;SDS011;57172;52.034;5.090;2023-08-06T04:44:57;13.30;;;7.70;;
69894;SDS011;57172;52.034;5.090;2023-08-06T04:47:25;13.63;;;7.50;;
69894;SDS011;57172;52.034;5.090;2023-08-06T04:49:52;13.85;;;7.68;;
69894;SDS011;57172;52.034;5.090;2023-08-06T04:52:19;13.85;;;7.72;;
69894;SDS011;57172;52.034;5.090;2023-08-06T04:54:46;12.70;;;7.63;;
69894;SDS011;57172;52.034;5.090;2023-08-06T04:57:13;12.30;;;7.28;;
69894;SDS011;57172;52.034;5.090;2023-08-06T04:59:40;14.53;;;7.87;;
69894;SDS011;57172;52.034;5.090;2023-08-06T05:02:07;12.57;;;7.25;;
69894;SDS011;57172;52.034;5.090;2023-08-06T05:04:34;13.18;;;7.47;;
69894;SDS011;57172;52.034;5.090;2023-08-06T05:07:01;12.63;;;7.10;;
69894;SDS011;57172;52.034;5.090;2023-08-06T05:09:28;13.25;;;7.32;;
69894;SDS011;57172;52.034;5.090;2023-08-06T05:11:55;14.33;;;7.60;;
69894;SDS011;57172;52.034;5.090;2023-08-06T05:14:22;12.40;;;7.38;;
69894;SDS011;57172;52.034;5.090;2023-08-06T05:16:49;12.57;;;7.35;;
69894;SDS011;57172;52.034;5.090;2023-08-06T05:19:16;13.98;;;7.10;;
69894;SDS011;57172;52.034;5.090;2023-08-06T05:21:43;12.20;;;6.85;;
69894;SDS011;57172;52.034;5.090;2023-08-06T05:24:10;13.60;;;7.20;;
69894;SDS011;57172;52.034;5.090;2023-08-06T05:26:37;12.02;;;6.85;;
69894;SDS011;57172;52.034;5.090;2023-08-06T05:29:04;11.48;;;6.05;;
69894;SDS011;57172;52.034;5.090;2023-08-06T05:31:30;10.00;;;5.10;;
69894;SDS011;57172;52.034;5.090;2023-08-06T05:33:57;9.00;;;4.50;;
69894;SDS011;57172;52.034;5.090;2023-08-06T05:36:24;8.50;;;4.57;;
69894;SDS011;57172;52.034;5.090;2023-08-06T05:38:55;10.02;;;4.30;;
69894;SDS011;57172;52.034;5.090;2023-08-06T05:41:22;7.72;;;4.07;;
69894;SDS011;57172;52.034;5.090;2023-08-06T05:43:49;6.30;;;3.40;;
69894;SDS011;57172;52.034;5.090;2023-08-06T05:46:15;5.07;;;2.63;;
69894;SDS011;57172;52.034;5.090;2023-08-06T05:48:43;9.13;;;2.60;;
69894;SDS011;57172;52.034;5.090;2023-08-06T05:51:10;6.10;;;2.67;;
69894;SDS011;57172;52.034;5.090;2023-08-06T05:53:39;8.32;;;2.20;;
69894;SDS011;57172;52.034;5.090;2023-08-06T05:56:05;14.85;;;2.20;;
69894;SDS011;57172;52.034;5.090;2023-08-06T05:58:32;11.77;;;2.17;;
69894;SDS011;57172;52.034;5.090;2023-08-06T06:00:59;8.17;;;2.03;;
69894;SDS011;57172;52.034;5.090;2023-08-06T06:03:26;3.17;;;1.95;;
69894;SDS011;57172;52.034;5.090;2023-08-06T06:05:53;6.50;;;2.13;;
69894;SDS011;57172;52.034;5.090;2023-08-06T06:08:20;3.63;;;2.17;;
69894;SDS011;57172;52.034;5.090;2023-08-06T06:10:47;6.53;;;2.50;;
69894;SDS011;57172;52.034;5.090;2023-08-06T06:13:14;9.13;;;2.23;;
69894;SDS011;57172;52.034;5.090;2023-08-06T06:15:42;3.67;;;2.17;;
69894;SDS011;57172;52.034;5.090;2023-08-06T06:18:09;3.90;;;2.10;;
69894;SDS011;57172;52.034;5.090;2023-08-06T06:20:36;3.65;;;2.20;;
69894;SDS011;57172;52.034;5.090;2023-08-06T06:23:03;5.30;;;2.47;;
69894;SDS011;57172;52.034;5.090;2023-08-06T06:25:29;4.57;;;2.30;;
69894;SDS011;57172;52.034;5.090;2023-08-06T06:27:56;5.63;;;2.35;;
69894;SDS011;57172;52.034;5.090;2023-08-06T06:30:25;3.75;;;2.40;;
69894;SDS011;57172;52.034;5.090;2023-08-06T06:32:52;4.82;;;2.30;;
69894;SDS011;57172;52.034;5.090;2023-08-06T06:35:19;3.88;;;2.40;;
69894;SDS011;57172;52.034;5.090;2023-08-06T06:37:46;5.90;;;2.77;;
69894;SDS011;57172;52.034;5.090;2023-08-06T06:40:12;4.20;;;2.60;;
69894;SDS011;57172;52.034;5.090;2023-08-06T06:42:40;4.57;;;2.47;;
69894;SDS011;57172;52.034;5.090;2023-08-06T06:45:08;5.05;;;2.90;;
69894;SDS011;57172;52.034;5.090;2023-08-06T06:47:35;5.15;;;3.13;;
69894;SDS011;57172;52.034;5.090;2023-08-06T06:50:03;5.53;;;3.10;;
69894;SDS011;57172;52.034;5.090;2023-08-06T06:52:30;6.43;;;3.55;;
69894;SDS011;57172;52.034;5.090;2023-08-06T06:54:57;6.95;;;3.70;;
69894;SDS011;57172;52.034;5.090;2023-08-06T06:57:24;5.47;;;3.70;;
69894;SDS011;57172;52.034;5.090;2023-08-06T06:59:52;7.63;;;3.90;;
69894;SDS011;57172;52.034;5.090;2023-08-06T07:02:19;6.73;;;3.67;;
69894;SDS011;57172;52.034;5.090;2023-08-06T07:04:46;7.40;;;4.10;;
69894;SDS011;57172;52.034;5.090;2023-08-06T07:07:13;7.22;;;4.22;;
69894;SDS011;57172;52.034;5.090;2023-08-06T07:09:40;6.32;;;3.90;;
69894;SDS011;57172;52.034;5.090;2023-08-06T07:12:07;6.18;;;4.07;;
69894;SDS011;57172;52.034;5.090;2023-08-06T07:14:34;6.47;;;4.00;;
69894;SDS011;57172;52.034;5.090;2023-08-06T07:17:01;7.20;;;4.40;;
69894;SDS011;57172;52.034;5.090;2023-08-06T07:19:28;7.45;;;4.13;;
69894;SDS011;57172;52.034;5.090;2023-08-06T07:21:55;6.80;;;3.60;;
69894;SDS011;57172;52.034;5.090;2023-08-06T07:24:22;6.25;;;3.75;;
69894;SDS011;57172;52.034;5.090;2023-08-06T07:26:49;5.53;;;3.43;;
69894;SDS011;57172;52.034;5.090;2023-08-06T07:29:16;6.70;;;3.45;;
69894;SDS011;57172;52.034;5.090;2023-08-06T07:31:47;6.18;;;3.38;;
69894;SDS011;57172;52.034;5.090;2023-08-06T07:34:15;4.93;;;3.33;;
69894;SDS011;57172;52.034;5.090;2023-08-06T07:36:44;5.80;;;3.53;;
69894;SDS011;57172;52.034;5.090;2023-08-06T07:39:11;5.03;;;3.30;;
69894;SDS011;57172;52.034;5.090;2023-08-06T07:41:38;5.30;;;3.10;;
69894;SDS011;57172;52.034;5.090;2023-08-06T07:44:05;5.75;;;3.50;;
69894;SDS011;57172;52.034;5.090;2023-08-06T07:46:32;5.80;;;3.60;;
69894;SDS011;57172;52.034;5.090;2023-08-06T07:48:59;5.72;;;3.30;;
69894;SDS011;57172;52.034;5.090;2023-08-06T07:51:26;5.87;;;3.50;;
69894;SDS011;57172;52.034;5.090;2023-08-06T07:53:53;6.13;;;3.40;;
69894;SDS011;57172;52.034;5.090;2023-08-06T07:56:20;7.53;;;3.60;;
69894;SDS011;57172;52.034;5.090;2023-08-06T07:58:47;7.72;;;3.60;;
69894;SDS011;57172;52.034;5.090;2023-08-06T08:01:14;7.80;;;3.72;;
69894;SDS011;57172;52.034;5.090;2023-08-06T08:03:41;7.87;;;3.93;;
69894;SDS011;57172;52.034;5.090;2023-08-06T08:06:09;7.22;;;3.70;;
69894;SDS011;57172;52.034;5.090;2023-08-06T08:08:35;8.30;;;4.00;;
69894;SDS011;57172;52.034;5.090;2023-08-06T08:11:05;7.43;;;3.90;;
69894;SDS011;57172;52.034;5.090;2023-08-06T08:13:32;5.97;;;3.70;;
69894;SDS011;57172;52.034;5.090;2023-08-06T08:16:00;7.97;;;3.97;;
69894;SDS011;57172;52.034;5.090;2023-08-06T08:18:27;7.65;;;3.75;;
69894;SDS011;57172;52.034;5.090;2023-08-06T08:20:56;6.95;;;3.83;;
69894;SDS011;57172;52.034;5.090;2023-08-06T08:23:23;7.18;;;4.10;;
69894;SDS011;57172;52.034;5.090;2023-08-06T08:25:50;8.05;;;4.40;;
69894;SDS011;57172;52.034;5.090;2023-08-06T08:28:17;7.10;;;4.47;;
69894;SDS011;57172;52.034;5.090;2023-08-06T08:30:44;9.43;;;4.32;;
69894;SDS011;57172;52.034;5.090;2023-08-06T08:33:11;9.82;;;4.45;;
69894;SDS011;57172;52.034;5.090;2023-08-06T08:35:38;9.13;;;4.72;;
69894;SDS011;57172;52.034;5.090;2023-08-06T08:38:05;8.60;;;4.85;;
69894;SDS011;57172;52.034;5.090;2023-08-06T08:40:32;7.50;;;4.63;;
69894;SDS011;57172;52.034;5.090;2023-08-06T08:43:01;10.02;;;4.78;;
69894;SDS011;57172;52.034;5.090;2023-08-06T08:45:29;9.32;;;4.90;;
69894;SDS011;57172;52.034;5.090;2023-08-06T08:47:56;8.35;;;4.53;;
69894;SDS011;57172;52.034;5.090;2023-08-06T08:50:23;7.78;;;4.18;;
69894;SDS011;57172;52.034;5.090;2023-08-06T08:52:50;10.83;;;4.30;;
69894;SDS011;57172;52.034;5.090;2023-08-06T08:55:18;9.07;;;3.97;;
69894;SDS011;57172;52.034;5.090;2023-08-06T08:57:47;8.13;;;4.18;;
69894;SDS011;57172;52.034;5.090;2023-08-06T09:00:14;9.27;;;4.13;;
69894;SDS011;57172;52.034;5.090;2023-08-06T09:02:41;7.25;;;3.40;;
69894;SDS011;57172;52.034;5.090;2023-08-06T09:05:09;9.33;;;3.03;;
69894;SDS011;57172;52.034;5.090;2023-08-06T09:07:42;6.30;;;3.03;;
69894;SDS011;57172;52.034;5.090;2023-08-06T09:10:16;5.78;;;2.80;;
69894;SDS011;57172;52.034;5.090;2023-08-06T09:12:47;6.97;;;3.10;;
69894;SDS011;57172;52.034;5.090;2023-08-06T09:15:17;9.57;;;3.00;;
69894;SDS011;57172;52.034;5.090;2023-08-06T09:17:44;6.27;;;2.67;;
69894;SDS011;57172;52.034;5.090;2023-08-06T09:20:11;6.40;;;2.80;;
69894;SDS011;57172;52.034;5.090;2023-08-06T09:22:39;5.35;;;2.60;;
69894;SDS011;57172;52.034;5.090;2023-08-06T09:25:07;6.30;;;2.70;;
69894;SDS011;57172;52.034;5.090;2023-08-06T09:27:37;5.50;;;2.63;;
69894;SDS011;57172;52.034;5.090;2023-08-06T09:30:05;6.97;;;2.47;;
69894;SDS011;57172;52.034;5.090;2023-08-06T09:32:46;4.22;;;2.22;;
69894;SDS011;57172;52.034;5.090;2023-08-06T09:35:19;4.97;;;2.20;;
69894;SDS011;57172;52.034;5.090;2023-08-06T09:37:46;4.32;;;2.03;;
69894;SDS011;57172;52.034;5.090;2023-08-06T09:40:27;5.80;;;2.20;;
69894;SDS011;57172;52.034;5.090;2023-08-06T09:42:56;4.67;;;2.00;;
69894;SDS011;57172;52.034;5.090;2023-08-06T09:45:28;3.85;;;1.70;;
69894;SDS011;57172;52.034;5.090;2023-08-06T09:48:03;6.93;;;1.70;;
69894;SDS011;57172;52.034;5.090;2023-08-06T09:50:35;4.13;;;1.73;;
69894;SDS011;57172;52.034;5.090;2023-08-06T09:53:03;3.05;;;1.70;;
69894;SDS011;57172;52.034;5.090;2023-08-06T09:55:32;3.67;;;1.53;;
69894;SDS011;57172;52.034;5.090;2023-08-06T09:58:00;3.90;;;1.70;;
69894;SDS011;57172;52.034;5.090;2023-08-06T10:00:27;6.68;;;1.90;;
69894;SDS011;57172;52.034;5.090;2023-08-06T10:02:59;7.10;;;2.03;;
69894;SDS011;57172;52.034;5.090;2023-08-06T10:05:27;3.25;;;1.60;;
69894;SDS011;57172;52.034;5.090;2023-08-06T10:07:55;2.50;;;1.63;;
69894;SDS011;57172;52.034;5.090;2023-08-06T10:10:23;3.78;;;1.67;;
69894;SDS011;57172;52.034;5.090;2023-08-06T10:12:52;3.15;;;1.50;;
69894;SDS011;57172;52.034;5.090;2023-08-06T10:15:25;5.38;;;1.52;;
69894;SDS011;57172;52.034;5.090;2023-08-06T10:17:54;4.90;;;1.67;;
69894;SDS011;57172;52.034;5.090;2023-08-06T10:20:24;4.57;;;1.63;;
69894;SDS011;57172;52.034;5.090;2023-08-06T10:23:04;4.82;;;1.60;;
69894;SDS011;57172;52.034;5.090;2023-08-06T10:25:35;3.22;;;1.55;;
69894;SDS011;57172;52.034;5.090;2023-08-06T10:28:12;4.18;;;1.60;;
69894;SDS011;57172;52.034;5.090;2023-08-06T10:30:44;3.55;;;1.70;;
69894;SDS011;57172;52.034;5.090;2023-08-06T10:33:12;3.70;;;1.50;;
69894;SDS011;57172;52.034;5.090;2023-08-06T10:35:40;3.53;;;1.58;;
69894;SDS011;57172;52.034;5.090;2023-08-06T10:38:17;3.05;;;1.50;;
69894;SDS011;57172;52.034;5.090;2023-08-06T10:43:35;3.38;;;1.60;;
69894;SDS011;57172;52.034;5.090;2023-08-06T10:46:09;4.40;;;1.57;;
69894;SDS011;57172;52.034;5.090;2023-08-06T10:48:38;3.88;;;1.65;;
69894;SDS011;57172;52.034;5.090;2023-08-06T10:51:11;4.00;;;1.85;;
69894;SDS011;57172;52.034;5.090;2023-08-06T10:53:43;3.85;;;1.85;;
69894;SDS011;57172;52.034;5.090;2023-08-06T10:56:12;5.50;;;2.08;;
69894;SDS011;57172;52.034;5.090;2023-08-06T10:58:40;3.80;;;2.17;;
69894;SDS011;57172;52.034;5.090;2023-08-06T11:01:08;4.93;;;1.90;;
69894;SDS011;57172;52.034;5.090;2023-08-06T11:03:35;3.65;;;1.60;;
69894;SDS011;57172;52.034;5.090;2023-08-06T11:06:03;5.22;;;1.77;;
69894;SDS011;57172;52.034;5.090;2023-08-06T11:08:35;4.38;;;1.75;;
69894;SDS011;57172;52.034;5.090;2023-08-06T11:11:09;6.07;;;2.10;;
69894;SDS011;57172;52.034;5.090;2023-08-06T11:13:39;5.28;;;2.10;;
69894;SDS011;57172;52.034;5.090;2023-08-06T11:16:13;4.18;;;1.80;;
69894;SDS011;57172;52.034;5.090;2023-08-06T11:18:44;4.28;;;2.00;;
69894;SDS011;57172;52.034;5.090;2023-08-06T11:21:12;6.57;;;2.00;;
69894;SDS011;57172;52.034;5.090;2023-08-06T11:23:39;5.77;;;2.10;;
69894;SDS011;57172;52.034;5.090;2023-08-06T11:26:07;5.57;;;2.00;;
69894;SDS011;57172;52.034;5.090;2023-08-06T11:28:34;5.00;;;1.90;;
69894;SDS011;57172;52.034;5.090;2023-08-06T11:31:01;5.25;;;1.90;;
69894;SDS011;57172;52.034;5.090;2023-08-06T11:33:30;4.75;;;1.80;;
69894;SDS011;57172;52.034;5.090;2023-08-06T11:35:58;5.97;;;1.90;;
69894;SDS011;57172;52.034;5.090;2023-08-06T11:38:29;3.65;;;1.80;;
69894;SDS011;57172;52.034;5.090;2023-08-06T11:40:56;4.38;;;2.05;;
69894;SDS011;57172;52.034;5.090;2023-08-06T11:43:23;4.47;;;1.70;;
69894;SDS011;57172;52.034;5.090;2023-08-06T11:45:52;4.97;;;2.00;;
69894;SDS011;57172;52.034;5.090;2023-08-06T11:48:21;7.50;;;1.73;;
69894;SDS011;57172;52.034;5.090;2023-08-06T11:50:48;3.80;;;1.60;;
69894;SDS011;57172;52.034;5.090;2023-08-06T11:53:15;3.67;;;1.60;;
69894;SDS011;57172;52.034;5.090;2023-08-06T11:55:42;3.78;;;1.75;;
69894;SDS011;57172;52.034;5.090;2023-08-06T11:58:10;5.20;;;1.80;;
69894;SDS011;57172;52.034;5.090;2023-08-06T12:00:38;3.33;;;1.60;;
69894;SDS011;57172;52.034;5.090;2023-08-06T12:03:05;3.08;;;1.60;;
69894;SDS011;57172;52.034;5.090;2023-08-06T12:05:32;4.55;;;1.75;;
69894;SDS011;57172;52.034;5.090;2023-08-06T12:08:00;4.35;;;1.77;;
69894;SDS011;57172;52.034;5.090;2023-08-06T12:10:29;4.25;;;1.75;;
69894;SDS011;57172;52.034;5.090;2023-08-06T12:12:58;4.20;;;1.60;;
69894;SDS011;57172;52.034;5.090;2023-08-06T12:15:25;3.63;;;1.55;;
69894;SDS011;57172;52.034;5.090;2023-08-06T12:17:52;2.80;;;1.60;;
69894;SDS011;57172;52.034;5.090;2023-08-06T12:20:19;5.28;;;1.90;;
69894;SDS011;57172;52.034;5.090;2023-08-06T12:22:46;2.78;;;1.60;;
69894;SDS011;57172;52.034;5.090;2023-08-06T12:25:13;3.40;;;1.60;;
69894;SDS011;57172;52.034;5.090;2023-08-06T12:27:41;3.85;;;1.40;;
69894;SDS011;57172;52.034;5.090;2023-08-06T12:30:09;3.35;;;1.50;;
69894;SDS011;57172;52.034;5.090;2023-08-06T12:32:37;3.15;;;1.50;;
69894;SDS011;57172;52.034;5.090;2023-08-06T12:35:05;4.60;;;1.80;;
69894;SDS011;57172;52.034;5.090;2023-08-06T12:37:34;3.87;;;1.37;;
69894;SDS011;57172;52.034;5.090;2023-08-06T12:40:01;4.05;;;1.60;;
69894;SDS011;57172;52.034;5.090;2023-08-06T12:42:50;1.88;;;1.30;;
69894;SDS011;57172;52.034;5.090;2023-08-06T12:45:17;3.97;;;1.40;;
69894;SDS011;57172;52.034;5.090;2023-08-06T12:47:47;3.17;;;1.55;;
69894;SDS011;57172;52.034;5.090;2023-08-06T12:50:15;3.10;;;1.40;;
69894;SDS011;57172;52.034;5.090;2023-08-06T12:52:44;1.98;;;1.38;;
69894;SDS011;57172;52.034;5.090;2023-08-06T12:55:11;2.97;;;1.40;;
69894;SDS011;57172;52.034;5.090;2023-08-06T12:57:37;3.20;;;1.40;;
69894;SDS011;57172;52.034;5.090;2023-08-06T13:00:21;2.22;;;1.40;;
69894;SDS011;57172;52.034;5.090;2023-08-06T13:02:48;3.07;;;1.40;;
69894;SDS011;57172;52.034;5.090;2023-08-06T13:05:15;5.65;;;1.60;;
69894;SDS011;57172;52.034;5.090;2023-08-06T13:07:42;2.45;;;1.50;;
69894;SDS011;57172;52.034;5.090;2023-08-06T13:10:09;3.30;;;1.58;;
69894;SDS011;57172;52.034;5.090;2023-08-06T13:12:36;3.58;;;1.70;;
69894;SDS011;57172;52.034;5.090;2023-08-06T13:15:03;2.63;;;1.30;;
69894;SDS011;57172;52.034;5.090;2023-08-06T13:17:30;2.47;;;1.50;;
69894;SDS011;57172;52.034;5.090;2023-08-06T13:19:57;4.28;;;1.50;;
69894;SDS011;57172;52.034;5.090;2023-08-06T13:22:25;3.53;;;1.50;;
69894;SDS011;57172;52.034;5.090;2023-08-06T13:24:51;2.10;;;1.30;;
69894;SDS011;57172;52.034;5.090;2023-08-06T13:27:18;2.80;;;1.50;;
69894;SDS011;57172;52.034;5.090;2023-08-06T13:29:45;3.78;;;1.50;;
69894;SDS011;57172;52.034;5.090;2023-08-06T13:32:12;2.78;;;1.35;;
69894;SDS011;57172;52.034;5.090;2023-08-06T13:34:39;3.58;;;1.50;;
69894;SDS011;57172;52.034;5.090;2023-08-06T13:37:06;2.65;;;1.40;;
69894;SDS011;57172;52.034;5.090;2023-08-06T13:39:33;3.00;;;1.40;;
69894;SDS011;57172;52.034;5.090;2023-08-06T13:42:00;3.05;;;1.45;;
69894;SDS011;57172;52.034;5.090;2023-08-06T13:44:27;2.47;;;1.40;;
69894;SDS011;57172;52.034;5.090;2023-08-06T13:46:55;2.50;;;1.30;;
69894;SDS011;57172;52.034;5.090;2023-08-06T13:49:22;2.15;;;1.50;;
69894;SDS011;57172;52.034;5.090;2023-08-06T13:51:49;3.67;;;1.40;;
69894;SDS011;57172;52.034;5.090;2023-08-06T13:54:16;1.80;;;1.30;;
69894;SDS011;57172;52.034;5.090;2023-08-06T13:56:43;1.73;;;1.33;;
69894;SDS011;57172;52.034;5.090;2023-08-06T13:59:10;2.58;;;1.40;;
69894;SDS011;57172;52.034;5.090;2023-08-06T14:01:40;2.03;;;1.40;;
69894;SDS011;57172;52.034;5.090;2023-08-06T14:04:17;2.40;;;1.33;;
69894;SDS011;57172;52.034;5.090;2023-08-06T14:06:45;2.63;;;1.48;;
69894;SDS011;57172;52.034;5.090;2023-08-06T14:09:12;3.28;;;1.50;;
69894;SDS011;57172;52.034;5.090;2023-08-06T14:11:40;4.03;;;1.60;;
69894;SDS011;57172;52.034;5.090;2023-08-06T14:14:08;2.40;;;1.40;;
69894;SDS011;57172;52.034;5.090;2023-08-06T14:16:34;2.00;;;1.40;;
69894;SDS011;57172;52.034;5.090;2023-08-06T14:19:02;3.15;;;1.40;;
69894;SDS011;57172;52.034;5.090;2023-08-06T14:21:29;2.25;;;1.50;;
69894;SDS011;57172;52.034;5.090;2023-08-06T14:23:56;3.65;;;1.55;;
69894;SDS011;57172;52.034;5.090;2023-08-06T14:26:23;2.63;;;1.60;;
69894;SDS011;57172;52.034;5.090;2023-08-06T14:28:50;4.23;;;1.60;;
69894;SDS011;57172;52.034;5.090;2023-08-06T14:31:20;2.83;;;1.55;;
69894;SDS011;57172;52.034;5.090;2023-08-06T14:33:47;4.22;;;1.70;;
69894;SDS011;57172;52.034;5.090;2023-08-06T14:36:15;3.63;;;1.80;;
69894;SDS011;57172;52.034;5.090;2023-08-06T14:38:41;4.45;;;1.55;;
69894;SDS011;57172;52.034;5.090;2023-08-06T14:41:24;4.27;;;1.50;;
69894;SDS011;57172;52.034;5.090;2023-08-06T14:43:51;6.85;;;1.35;;
69894;SDS011;57172;52.034;5.090;2023-08-06T14:46:19;4.43;;;1.20;;
69894;SDS011;57172;52.034;5.090;2023-08-06T14:48:46;4.28;;;1.30;;
69894;SDS011;57172;52.034;5.090;2023-08-06T14:51:13;3.42;;;1.17;;
69894;SDS011;57172;52.034;5.090;2023-08-06T14:53:40;3.90;;;1.20;;
69894;SDS011;57172;52.034;5.090;2023-08-06T14:56:07;3.45;;;1.20;;
69894;SDS011;57172;52.034;5.090;2023-08-06T14:58:34;5.10;;;1.20;;
69894;SDS011;57172;52.034;5.090;2023-08-06T15:01:01;4.13;;;1.20;;
69894;SDS011;57172;52.034;5.090;2023-08-06T15:03:28;6.30;;;1.23;;